Time;durP1;ratioP1;P1;durP2;ratioP2;P2;SDS_P1;SDS_P2;PMS_P1;PMS_P2;Temp;Humidity;BMP_temperature;BMP_pressure;BME280_temperature;BME280_humidity;BME280_pressure;Samples;Min_cycle;Max_cycle;Signal;HPM_P1;HPM_P2
2022/03/16 00:03:58;;;;;;;24.27;10.27;;;8.50;53.80;;;6.82;49.34;100592.25;10313661;28;96807;-79
2022/03/16 00:09:01;;;;;;;18.93;9.07;;;8.40;54.00;;;6.70;49.83;100562.47;10330639;28;96883;-79
2022/03/16 00:14:04;;;;;;;37.40;16.67;;;8.30;54.40;;;6.60;50.73;100571.34;10329622;28;96876;-79
2022/03/16 00:19:07;;;;;;;23.90;12.07;;;8.20;56.20;;;6.51;51.31;100585.34;10327280;28;97090;-79
2022/03/16 00:24:10;;;;;;;28.60;12.97;;;8.10;56.10;;;6.43;51.05;100578.09;10331001;28;96740;-79
2022/03/16 00:29:13;;;;;;;25.40;11.43;;;8.10;56.90;;;6.45;50.23;100562.94;10329075;28;96614;-78
2022/03/16 00:34:17;;;;;;;24.60;12.23;;;8.10;55.50;;;6.48;50.19;100557.41;10303877;28;96633;-78
2022/03/16 00:39:19;;;;;;;19.23;8.00;;;8.10;55.60;;;6.51;50.76;100556.31;10352346;28;96946;-78
2022/03/16 00:44:22;;;;;;;18.93;9.73;;;8.10;56.40;;;6.53;50.68;100549.91;10335726;28;96751;-78
2022/03/16 00:49:26;;;;;;;16.93;8.70;;;8.10;57.10;;;6.63;49.52;100544.66;10335498;28;96793;-79
2022/03/16 00:54:30;;;;;;;18.27;8.90;;;8.10;56.30;;;6.81;48.89;100543.06;10335853;28;96630;-80
2022/03/16 00:59:33;;;;;;;14.70;8.07;;;8.20;56.30;;;6.97;49.19;100539.91;10337011;28;96537;-79
2022/03/16 01:04:36;;;;;;;19.10;7.80;;;8.40;56.50;;;7.12;48.59;100538.50;10297694;28;98378;-79
2022/03/16 01:09:39;;;;;;;16.90;8.27;;;8.50;56.00;;;7.22;48.97;100533.25;10294500;28;96608;-79
2022/03/16 01:14:42;;;;;;;22.07;10.17;;;8.60;56.00;;;7.26;49.18;100534.66;10296302;28;96549;-79
2022/03/16 01:19:45;;;;;;;15.10;8.40;;;8.70;56.40;;;7.26;49.31;100537.31;10261679;28;96575;-80
2022/03/16 01:24:48;;;;;;;17.03;9.17;;;8.70;56.40;;;7.24;50.22;100561.22;10295331;28;96647;-79
2022/03/16 01:29:51;;;;;;;18.97;9.50;;;8.80;57.20;;;7.27;50.20;100575.97;10276141;28;96517;-80
2022/03/16 01:34:53;;;;;;;16.90;8.33;;;8.70;57.10;;;7.40;52.40;100586.28;10277332;28;98307;-80
2022/03/16 01:39:56;;;;;;;15.37;8.07;;;8.80;58.70;;;7.52;52.46;100585.19;10272601;28;96726;-80
2022/03/16 01:44:59;;;;;;;18.60;9.43;;;8.90;60.00;;;7.55;53.61;100584.88;10273858;28;96785;-80
2022/03/16 01:50:04;;;;;;;12.60;6.93;;;9.00;58.90;;;7.54;53.04;100583.22;10287666;28;96731;-80
2022/03/16 01:55:07;;;;;;;13.10;7.30;;;9.00;59.10;;;7.50;52.60;100574.75;10276841;28;96580;-80
2022/03/16 02:00:11;;;;;;;13.27;7.90;;;9.00;59.00;;;7.44;53.08;100555.97;10276084;28;96789;-79
2022/03/16 02:05:14;;;;;;;13.10;6.83;;;9.00;60.00;;;7.36;54.26;100561.91;10275886;28;97068;-79
2022/03/16 02:10:18;;;;;;;16.00;8.67;;;8.90;60.10;;;7.22;55.07;100559.69;10274079;28;96721;-80
2022/03/16 02:15:21;;;;;;;15.80;8.57;;;8.80;60.50;;;7.09;56.43;100541.44;10290792;28;98538;-80
2022/03/16 02:20:27;;;;;;;16.27;8.50;;;8.70;61.80;;;6.97;57.83;100537.25;10259471;28;96599;-79
2022/03/16 02:25:31;;;;;;;16.37;8.83;;;8.60;62.60;;;6.87;58.86;100536.41;10275755;28;96850;-80
2022/03/16 02:30:34;;;;;;;15.80;8.70;;;8.50;64.30;;;6.78;59.63;100527.50;10256659;28;96547;-80
2022/03/16 02:35:38;;;;;;;21.20;11.27;;;8.40;64.50;;;6.72;60.82;100517.47;10267253;28;96501;-80
2022/03/16 02:40:41;;;;;;;16.53;9.47;;;8.40;66.50;;;6.64;62.05;100510.19;10274177;28;98599;-80
2022/03/16 02:45:43;;;;;;;22.93;11.00;;;8.30;67.60;;;6.59;63.24;100501.84;10290450;28;96500;-80
2022/03/16 02:50:47;;;;;;;17.40;9.40;;;8.20;70.40;;;6.54;63.98;100485.59;10275514;28;97243;-80
2022/03/16 02:55:51;;;;;;;16.93;9.17;;;8.20;71.40;;;6.54;64.85;100474.19;10275772;28;96975;-80
2022/03/16 03:00:54;;;;;;;17.50;9.17;;;8.10;72.10;;;6.54;65.25;100474.19;10269386;28;98406;-80
2022/03/16 03:05:57;;;;;;;23.00;10.60;;;8.10;72.90;;;6.52;66.34;100479.59;10234790;28;96504;-80
2022/03/16 03:11:00;;;;;;;16.97;8.60;;;8.10;74.10;;;6.43;67.73;100456.66;10254166;28;96473;-81
2022/03/16 03:16:04;;;;;;;15.33;9.70;;;8.10;79.10;;;6.37;67.97;100438.72;10291302;28;96519;-80
2022/03/16 03:21:07;;;;;;;18.77;10.37;;;8.00;80.20;;;6.33;67.59;100424.09;10275522;28;96543;-80
2022/03/16 03:26:09;;;;;;;15.80;9.70;;;7.90;79.80;;;6.31;67.69;100402.31;10292142;28;96468;-79
2022/03/16 03:31:12;;;;;;;15.80;8.73;;;7.90;83.80;;;6.30;68.51;100382.16;10273697;28;97257;-78
2022/03/16 03:36:15;;;;;;;14.43;9.17;;;7.80;87.00;;;6.30;67.91;100380.34;10273757;28;96476;-79
2022/03/16 03:41:18;;;;;;;17.33;10.13;;;7.80;87.90;;;6.30;67.88;100361.88;10290584;28;97057;-80
2022/03/16 03:46:21;;;;;;;25.60;13.00;;;7.80;86.50;;;6.29;67.76;100362.84;10272844;28;97376;-80
2022/03/16 03:51:24;;;;;;;18.03;9.80;;;7.80;86.10;;;6.29;67.95;100369.91;10290984;28;96491;-79
2022/03/16 03:56:27;;;;;;;17.17;10.10;;;7.80;88.40;;;6.28;67.95;100352.41;10291078;28;96659;-79
2022/03/16 04:01:30;;;;;;;15.97;8.97;;;7.80;86.80;;;6.28;68.25;100349.78;10277446;28;96830;-79
2022/03/16 04:06:34;;;;;;;14.73;9.07;;;7.80;88.70;;;6.29;68.90;100365.47;10263517;28;96673;-80
2022/03/16 04:11:37;;;;;;;13.23;7.63;;;7.80;88.10;;;6.32;69.02;100349.38;10298124;28;96435;-79
2022/03/16 04:16:40;;;;;;;19.87;11.07;;;7.90;88.60;;;6.30;69.81;100335.50;10280798;28;96515;-78
2022/03/16 04:21:43;;;;;;;17.93;11.10;;;7.80;91.80;;;6.29;70.47;100327.69;10298297;28;96592;-78
2022/03/16 04:26:46;;;;;;;17.73;9.97;;;7.80;91.00;;;6.29;70.31;100325.06;10281601;28;97274;-78
2022/03/16 04:31:49;;;;;;;17.13;10.43;;;7.80;91.40;;;6.24;71.59;100324.63;10279546;28;96519;-78
2022/03/16 04:36:52;;;;;;;21.20;11.90;;;7.80;93.70;;;6.23;72.36;100336.97;10264482;28;96549;-78
2022/03/16 04:41:55;;;;;;;15.03;9.07;;;7.70;95.30;;;6.21;72.67;100332.81;10258793;28;96630;-78
2022/03/16 04:46:59;;;;;;;18.40;10.93;;;7.70;96.80;;;6.19;73.34;100335.59;10296567;28;96491;-79
2022/03/16 04:52:03;;;;;;;18.03;9.97;;;7.70;97.00;;;6.17;73.05;100348.91;10278373;28;96778;-78
2022/03/16 04:57:06;;;;;;;20.23;12.00;;;7.70;95.70;;;6.16;73.32;100357.81;10263871;28;97869;-79
2022/03/16 05:02:09;;;;;;;23.97;12.70;;;7.70;98.20;;;6.17;73.12;100374.47;10281770;28;96650;-78
2022/03/16 05:07:11;;;;;;;32.60;15.83;;;7.70;96.90;;;6.20;73.39;100354.91;10268072;28;96567;-78
2022/03/16 05:12:15;;;;;;;24.47;12.53;;;7.70;97.40;;;6.20;73.23;100358.38;10281333;28;96562;-79
2022/03/16 05:17:18;;;;;;;22.60;12.03;;;7.70;96.80;;;6.22;72.79;100352.97;10294863;28;96686;-77
2022/03/16 05:22:22;;;;;;;22.00;11.03;;;7.80;96.80;;;6.25;73.18;100371.19;10296223;28;96603;-80
2022/03/16 05:27:25;;;;;;;17.77;10.67;;;7.80;97.00;;;6.25;73.26;100393.13;10279322;28;96596;-80
2022/03/16 05:32:27;;;;;;;21.87;12.27;;;7.80;99.50;;;6.22;75.24;100426.84;10295318;28;97458;-80
2022/03/16 05:37:31;;;;;;;28.87;13.17;;;7.70;99.90;;;6.21;76.74;100417.28;10237643;28;96918;-80
2022/03/16 05:42:35;;;;;;;34.87;17.63;;;7.70;99.90;;;6.19;77.55;100429.78;10282636;28;96713;-79
2022/03/16 05:47:38;;;;;;;23.27;13.40;;;7.70;99.90;;;6.17;77.86;100427.25;10258864;28;96479;-81
2022/03/16 05:52:43;;;;;;;24.70;13.77;;;7.70;99.90;;;6.11;78.29;100423.34;10252737;28;98342;-79
2022/03/16 05:57:46;;;;;;;21.60;12.70;;;7.60;99.90;;;5.91;77.14;100442.69;10291543;28;97503;-80
2022/03/16 06:02:50;;;;;;;17.30;11.10;;;7.50;99.90;;;5.69;77.14;100442.81;10275193;28;96682;-80
2022/03/16 06:07:57;;;;;;;18.67;11.50;;;7.30;99.90;;;5.44;77.28;100458.09;10288593;28;96688;-79
2022/03/16 06:13:05;;;;;;;20.67;11.77;;;7.10;99.90;;;5.26;77.65;100463.09;10266403;22;96763;-78
2022/03/16 06:18:09;;;;;;;18.77;11.77;;;6.90;99.90;;;5.18;78.12;100456.78;10257021;28;96997;-79
2022/03/16 06:23:12;;;;;;;21.10;12.03;;;6.80;99.90;;;5.15;78.15;100470.19;10238529;28;96726;-79
2022/03/16 06:28:16;;;;;;;16.60;9.43;;;6.70;99.90;;;5.10;77.91;100470.59;10276654;28;96543;-79
2022/03/16 06:33:18;;;;;;;24.10;12.97;;;6.70;99.90;;;5.08;78.13;100473.34;10265285;28;96550;-79
2022/03/16 06:38:23;;;;;;;22.97;11.63;;;6.60;99.90;;;5.09;78.24;100472.38;10260466;28;96558;-79
2022/03/16 06:43:26;;;;;;;18.53;10.70;;;6.60;99.90;;;5.06;77.66;100482.34;10236906;28;98365;-79
2022/03/16 06:48:29;;;;;;;19.13;11.37;;;6.60;99.90;;;5.01;77.36;100469.53;10257814;28;96520;-78
2022/03/16 06:53:32;;;;;;;23.20;12.17;;;6.50;99.90;;;4.97;77.92;100473.38;10243300;28;96610;-79
2022/03/16 06:58:35;;;;;;;25.93;13.60;;;6.50;99.90;;;4.99;78.73;100473.28;10239264;28;96645;-80
2022/03/16 07:03:38;;;;;;;20.60;12.00;;;6.50;99.90;;;4.98;79.05;100480.34;10235467;28;96432;-80
2022/03/16 07:08:41;;;;;;;18.67;11.30;;;6.50;99.90;;;4.98;79.09;100487.41;10266774;28;97427;-79
2022/03/16 07:14:30;;;;;;;17.80;11.00;;;6.50;99.90;;;4.99;79.02;100476.75;10256185;28;97025;-79
2022/03/16 07:19:07;;;;;;;20.20;11.70;;;6.50;99.90;;;4.95;78.51;100485.84;10237736;28;96555;-79
2022/03/16 07:24:10;;;;;;;22.90;12.90;;;6.40;99.90;;;4.95;78.92;100480.56;10273057;28;96735;-79
2022/03/16 07:29:13;;;;;;;24.10;12.80;;;6.40;99.90;;;5.01;79.28;100480.06;10275583;28;96547;-79
2022/03/16 07:34:16;;;;;;;22.80;12.90;;;6.40;99.90;;;5.02;78.98;100505.44;10293028;28;97491;-79
2022/03/16 07:39:19;;;;;;;21.10;11.67;;;6.50;99.90;;;5.00;79.25;100511.81;10275019;28;96710;-79
2022/03/16 07:44:22;;;;;;;20.97;12.17;;;6.50;99.90;;;4.96;79.46;100513.03;10273212;28;96530;-78
2022/03/16 07:49:25;;;;;;;29.40;15.40;;;6.40;99.90;;;4.96;80.44;100510.38;10267844;28;96481;-79
2022/03/16 07:54:28;;;;;;;36.97;14.27;;;6.40;99.90;;;5.02;80.86;100510.72;10234798;28;96556;-79
2022/03/16 07:59:31;;;;;;;21.90;13.20;;;6.50;99.90;;;5.10;81.30;100516.22;10243069;28;96859;-79
2022/03/16 08:04:34;;;;;;;23.47;13.67;;;6.50;99.90;;;5.08;81.46;100518.13;10217084;28;96616;-79
2022/03/16 08:09:37;;;;;;;25.00;14.60;;;6.50;99.90;;;5.06;81.47;100517.41;10250473;28;96422;-79
2022/03/16 08:14:40;;;;;;;21.63;12.67;;;6.50;99.90;;;4.99;81.43;100524.16;10249108;28;96513;-80
2022/03/16 08:19:43;;;;;;;28.20;16.40;;;6.50;99.90;;;4.97;81.93;100525.22;10233544;28;96584;-79
2022/03/16 08:24:51;;;;;;;25.90;14.70;;;6.40;99.90;;;4.98;81.67;100535.66;10239494;28;98905;-80
2022/03/16 08:29:55;;;;;;;24.60;14.03;;;6.50;99.90;;;5.00;82.01;100539.00;10248763;28;96637;-79
2022/03/16 08:34:58;;;;;;;21.93;13.77;;;6.50;99.90;;;5.04;82.11;100543.06;10232648;28;96580;-78
2022/03/16 08:40:04;;;;;;;22.97;14.03;;;6.50;99.90;;;5.07;82.06;100555.13;10281279;28;96345;-79
2022/03/16 08:45:07;;;;;;;24.53;14.57;;;6.50;99.90;;;5.08;82.19;100560.28;10252463;28;96408;-78
2022/03/16 08:50:11;;;;;;;23.37;14.07;;;6.50;99.90;;;5.10;82.21;100571.53;10231531;28;96522;-79
2022/03/16 08:55:15;;;;;;;24.40;13.83;;;6.60;99.90;;;5.11;82.10;100580.28;10256997;28;96987;-79
2022/03/16 09:00:18;;;;;;;23.40;14.13;;;6.60;99.90;;;5.05;82.74;100589.50;10254236;28;96541;-79
2022/03/16 09:05:21;;;;;;;24.07;15.10;;;6.50;99.90;;;5.03;83.29;100587.94;10294229;28;97611;-79
2022/03/16 09:10:24;;;;;;;28.43;14.63;;;6.50;99.90;;;5.02;84.11;100581.00;10262362;28;96531;-78
2022/03/16 09:15:27;;;;;;;26.97;15.57;;;6.40;99.90;;;5.08;84.43;100591.03;10294252;28;96485;-81
2022/03/16 09:20:30;;;;;;;22.80;13.60;;;6.50;99.90;;;5.09;84.82;100596.19;10318945;28;96489;-80
2022/03/16 09:25:33;;;;;;;29.20;17.47;;;6.50;99.90;;;5.12;84.96;100602.19;10295325;28;96895;-80
2022/03/16 09:30:37;;;;;;;29.23;17.17;;;6.50;99.90;;;5.14;85.15;100618.69;10294741;28;97296;-80
2022/03/16 09:35:39;;;;;;;33.00;19.30;;;6.60;99.90;;;5.08;84.96;100622.66;10306040;28;97764;-80
2022/03/16 09:40:43;;;;;;;30.23;17.37;;;6.50;99.90;;;5.00;85.42;100615.38;10295964;28;96562;-80
2022/03/16 09:46:09;;;;;;;35.40;18.37;;;6.50;99.90;;;4.91;86.09;100626.63;10300912;28;96629;-79
2022/03/16 09:51:16;;;;;;;35.60;21.53;;;6.40;99.90;;;4.91;86.65;100636.31;10285484;28;96800;-79
2022/03/16 09:56:20;;;;;;;30.83;19.20;;;6.40;99.90;;;4.93;86.81;100635.25;10309401;28;96541;-79
2022/03/16 10:01:23;;;;;;;29.33;17.73;;;6.40;99.90;;;4.94;87.58;100634.28;10307829;28;96675;-79
2022/03/16 10:06:26;;;;;;;33.20;20.37;;;6.40;99.90;;;5.01;87.62;100634.66;10332852;28;97595;-79
2022/03/16 10:22:31;;;;;;;24.40;14.40;;;6.60;99.90;;;5.25;88.25;100645.03;10293825;28;96560;-79
2022/03/16 10:27:39;;;;;;;23.90;14.70;;;6.70;99.90;;;5.34;88.08;100641.66;10237353;28;96689;-79
2022/03/16 10:32:53;;;;;;;26.27;15.43;;;6.70;99.90;;;5.41;87.95;100650.75;10225269;28;96534;-79
2022/03/16 10:38:13;;;;;;;24.93;15.87;;;6.80;99.90;;;5.46;87.53;100653.00;10236195;28;97115;-79
2022/03/16 10:48:59;;;;;;;25.73;16.47;;;6.90;99.90;;;5.53;87.11;100662.94;10237183;28;96652;-79
2022/03/16 10:54:04;;;;;;;23.43;14.83;;;6.90;99.90;;;5.55;87.20;100668.91;10238711;28;96714;-80
2022/03/16 10:59:08;;;;;;;23.40;14.63;;;6.90;99.90;;;5.54;86.56;100671.69;10277479;28;96611;-80
2022/03/16 11:04:12;;;;;;;23.83;15.77;;;6.90;99.90;;;5.48;86.17;100667.75;10260664;28;97850;-80
2022/03/16 11:09:17;;;;;;;31.10;17.90;;;6.90;99.90;;;5.53;85.71;100678.75;10253219;28;96501;-80
2022/03/16 11:14:21;;;;;;;30.83;16.73;;;6.90;99.90;;;5.59;84.96;100696.72;10237726;28;96568;-80
2022/03/16 11:19:24;;;;;;;28.80;16.03;;;7.00;99.90;;;5.71;84.58;100694.88;10256966;28;96616;-80
2022/03/16 11:24:34;;;;;;;32.80;17.83;;;7.00;99.90;;;5.97;84.90;100700.69;10261730;28;96427;-81
2022/03/16 11:29:53;;;;;;;27.83;17.67;;;7.10;99.90;;;6.31;84.14;100703.19;10219010;28;96616;-80
2022/03/16 11:34:59;;;;;;;26.20;15.73;;;7.40;99.90;;;6.52;82.12;100705.81;10274401;28;96591;-79
2022/03/16 11:40:22;;;;;;;24.90;14.53;;;7.60;99.90;;;6.69;81.22;100710.53;10276271;28;96791;-81
2022/03/16 11:45:50;;;;;;;20.80;13.80;;;7.80;99.90;;;6.86;80.65;100714.38;10297148;28;96478;-81
2022/03/16 11:56:26;;;;;;;21.03;13.73;;;8.10;99.90;;;6.89;78.29;100729.94;10278215;28;96812;-81
2022/03/16 12:01:34;;;;;;;23.13;14.13;;;8.10;99.90;;;6.67;77.23;100729.16;10278058;28;96520;-80
2022/03/16 12:07:06;;;;;;;22.37;14.20;;;7.90;99.90;;;6.50;77.59;100739.44;10239301;28;96553;-81
2022/03/16 12:17:52;;;;;;;23.27;13.83;;;7.70;99.90;;;6.39;77.47;100743.81;10282346;28;97868;-80
2022/03/16 12:22:58;;;;;;;20.90;13.37;;;7.60;99.90;;;6.40;77.42;100734.09;10234597;28;96562;-79
2022/03/16 12:33:47;;;;;;;22.80;13.03;;;7.70;99.90;;;6.90;76.62;100734.28;10267539;28;96607;-80
2022/03/16 12:39:10;;;;;;;18.93;12.20;;;7.90;99.90;;;7.01;74.91;100739.47;10283922;28;96437;-80
2022/03/16 12:44:17;;;;;;;18.87;12.07;;;8.10;99.90;;;7.18;74.61;100738.00;10235178;28;96915;-80
2022/03/16 12:49:22;;;;;;;16.13;11.00;;;8.30;99.90;;;7.40;73.41;100734.34;10272457;28;96680;-80
2022/03/16 12:54:32;;;;;;;15.00;10.37;;;8.50;99.90;;;7.68;72.31;100738.06;10261957;28;96590;-80
2022/03/16 12:59:39;;;;;;;13.93;9.20;;;8.70;99.90;;;7.95;71.41;100756.75;10241085;28;96449;-80
2022/03/16 13:04:42;;;;;;;14.10;9.83;;;9.00;99.90;;;8.03;70.44;100761.34;10241223;28;96609;-80
2022/03/16 13:09:45;;;;;;;14.53;9.43;;;9.10;99.90;;;7.96;69.77;100773.47;10277875;28;96664;-80
2022/03/16 13:14:48;;;;;;;13.33;8.77;;;9.10;99.90;;;7.85;69.58;100777.06;10279506;28;96414;-79
2022/03/16 13:19:55;;;;;;;12.43;9.17;;;9.10;99.90;;;7.70;69.51;100768.69;10259854;28;98391;-80
2022/03/16 13:25:03;;;;;;;14.60;9.23;;;9.00;99.90;;;7.63;68.67;100783.41;10241794;28;96608;-80
2022/03/16 13:30:19;;;;;;;14.67;9.60;;;8.90;99.90;;;7.63;68.65;100787.88;10243582;28;96511;-80
2022/03/16 13:35:26;;;;;;;11.47;8.40;;;8.80;99.90;;;7.71;68.74;100794.16;10244695;28;96547;-80
2022/03/16 13:40:37;;;;;;;13.33;8.13;;;8.90;99.90;;;7.92;68.32;100782.66;10254452;28;96518;-80
2022/03/16 13:45:48;;;;;;;9.60;6.83;;;9.00;99.90;;;8.06;67.15;100779.59;10257401;28;96567;-80
2022/03/16 13:50:57;;;;;;;12.10;8.40;;;9.10;99.90;;;8.16;66.68;100784.94;10277638;28;96463;-80
2022/03/16 13:56:19;;;;;;;9.13;6.57;;;9.30;99.90;;;8.18;65.77;100788.25;10280958;28;98368;-80
2022/03/16 14:01:25;;;;;;;8.83;7.03;;;9.30;99.00;;;8.33;65.35;100787.69;10269260;28;98144;-79
2022/03/16 14:06:43;;;;;;;8.60;5.90;;;9.40;98.50;;;8.42;64.52;100779.94;10262554;28;96864;-80
2022/03/16 14:11:51;;;;;;;7.97;5.97;;;9.50;97.20;;;8.33;63.40;100797.44;10277567;28;98071;-80
2022/03/16 14:16:55;;;;;;;6.63;4.90;;;9.60;96.60;;;8.22;63.25;100806.38;10317426;28;96604;-79
2022/03/16 14:22:00;;;;;;;7.13;5.20;;;9.50;95.50;;;8.18;62.90;100809.44;10322951;28;96724;-80
2022/03/16 14:27:19;;;;;;;7.70;5.37;;;9.50;95.20;;;8.00;63.19;100814.56;10332875;28;96713;-79
2022/03/16 14:32:24;;;;;;;7.43;5.50;;;9.30;95.40;;;7.79;63.47;100831.34;10304986;28;96838;-79
2022/03/16 14:37:30;;;;;;;5.30;4.23;;;9.10;95.30;;;7.70;63.69;100832.16;10328023;28;97051;-80
2022/03/16 14:42:35;;;;;;;5.90;4.20;;;9.00;95.60;;;7.73;64.06;100831.88;10296183;28;97014;-79
2022/03/16 14:47:38;;;;;;;6.87;4.27;;;9.00;95.80;;;7.89;64.02;100844.63;10327138;28;96571;-79
2022/03/16 14:52:43;;;;;;;5.83;4.50;;;9.10;95.70;;;8.02;63.41;100839.06;10299877;28;96930;-79
2022/03/16 14:57:46;;;;;;;8.70;5.70;;;9.30;95.40;;;8.04;63.25;100837.16;10308021;28;96589;-80
2022/03/16 15:02:51;;;;;;;6.17;4.50;;;9.30;95.20;;;7.98;63.08;100835.88;10312152;28;96613;-79
2022/03/16 15:07:54;;;;;;;7.47;4.60;;;9.30;94.90;;;8.07;63.55;100836.03;10292335;28;96487;-79
2022/03/16 15:12:57;;;;;;;9.53;5.03;;;9.40;94.60;;;8.51;62.90;100840.84;10288947;28;98121;-78
2022/03/16 15:18:00;;;;;;;6.00;4.30;;;9.80;94.80;;;8.77;61.14;100833.19;10244450;28;96522;-79
2022/03/16 15:23:03;;;;;;;9.10;5.50;;;10.00;93.60;;;8.82;61.21;100836.25;10244905;28;97239;-81
2022/03/16 15:28:05;;;;;;;7.43;5.10;;;10.10;93.20;;;8.90;61.19;100847.97;10245634;28;97004;-79
2022/03/16 15:33:10;;;;;;;5.77;4.53;;;10.20;93.00;;;9.16;60.46;100848.19;10224153;28;96597;-79
2022/03/16 15:38:12;;;;;;;6.13;4.37;;;10.50;92.60;;;9.15;59.34;100857.97;10239403;28;96906;-79
2022/03/16 15:43:15;;;;;;;6.90;5.03;;;10.50;91.30;;;9.02;59.33;100865.38;10250335;28;96563;-80
2022/03/16 15:48:18;;;;;;;5.77;4.67;;;10.40;90.90;;;8.81;59.82;100865.53;10270615;28;97121;-80
2022/03/16 15:53:21;;;;;;;7.87;5.13;;;10.30;91.10;;;8.61;60.35;100870.00;10253780;28;97338;-81
2022/03/16 15:58:25;;;;;;;6.40;4.90;;;10.10;91.10;;;8.42;61.01;100872.63;10272764;28;96452;-80
2022/03/16 16:03:28;;;;;;;7.13;5.40;;;9.90;91.40;;;8.29;61.59;100873.72;10283234;28;96864;-80
2022/03/16 16:08:31;;;;;;;9.00;6.20;;;9.70;91.70;;;8.15;61.96;100874.06;10264057;28;98657;-81
2022/03/16 16:13:40;;;;;;;6.90;5.20;;;9.70;91.90;;;7.97;62.58;100884.47;10259262;28;97919;-81
2022/03/16 16:18:43;;;;;;;5.77;4.07;;;9.50;92.30;;;7.83;63.07;100884.00;10273381;28;96598;-81
2022/03/16 16:23:47;;;;;;;6.90;4.30;;;9.30;92.60;;;7.66;63.96;100885.47;10238243;28;96507;-81
2022/03/16 16:28:50;;;;;;;5.73;4.40;;;9.20;93.10;;;7.53;64.37;100901.56;10247519;28;98318;-81
2022/03/16 16:33:53;;;;;;;7.10;4.93;;;9.00;93.60;;;7.44;64.90;100915.56;10258009;28;96527;-80
2022/03/16 16:38:57;;;;;;;9.30;5.80;;;8.90;94.20;;;7.32;65.43;100909.53;10251851;28;97687;-80
2022/03/16 16:44:00;;;;;;;9.27;5.97;;;8.80;94.50;;;7.20;65.83;100907.91;10269242;28;96690;-80
2022/03/16 16:49:03;;;;;;;9.60;5.90;;;8.70;95.10;;;7.12;66.52;100912.97;10237940;28;96379;-80
2022/03/16 16:54:06;;;;;;;14.57;8.10;;;8.60;95.90;;;7.04;66.76;100913.63;10250825;28;96637;-81
2022/03/16 16:59:09;;;;;;;15.97;10.40;;;8.50;96.30;;;6.94;66.85;100926.75;10264160;28;96489;-79
2022/03/16 17:04:13;;;;;;;13.10;8.63;;;8.50;96.20;;;6.87;67.27;100935.31;10239509;28;96637;-81
2022/03/16 17:09:17;;;;;;;15.70;9.77;;;8.40;96.50;;;6.80;67.97;100950.00;10270641;28;96644;-80
2022/03/16 17:14:21;;;;;;;11.17;7.23;;;8.40;97.00;;;6.74;68.49;100953.13;10257088;28;96840;-80
2022/03/16 17:19:28;;;;;;;11.53;8.00;;;8.30;97.60;;;6.73;68.70;100962.03;10256580;28;96659;-80
2022/03/16 17:24:31;;;;;;;11.37;7.40;;;8.20;98.20;;;6.73;68.87;100962.88;10280456;28;96517;-80
2022/03/16 17:29:34;;;;;;;9.73;6.83;;;8.20;98.30;;;6.73;69.12;100977.88;10248268;28;96473;-79
2022/03/16 17:34:38;;;;;;;8.43;6.37;;;8.20;98.40;;;6.69;69.04;100993.13;10269723;28;96595;-80
2022/03/16 17:39:41;;;;;;;9.00;5.87;;;8.20;98.50;;;6.68;69.07;100996.72;10267289;28;98025;-79
2022/03/16 17:50:06;;;;;;;11.10;7.77;;;8.20;99.20;;;6.64;69.52;101009.34;10268181;28;96784;-78
2022/03/16 17:56:44;;;;;;;15.43;9.23;;;8.10;99.20;;;6.62;69.20;101010.44;10261885;28;96355;-79
2022/03/16 18:00:42;;;;;;;8.27;5.87;;;8.10;99.00;;;6.58;69.51;101004.53;10261975;28;96608;-79
2022/03/16 18:05:46;;;;;;;9.63;6.93;;;8.10;99.50;;;6.53;69.55;101011.97;10265965;28;98257;-79
2022/03/16 18:16:11;;;;;;;12.20;7.43;;;8.00;99.80;;;6.47;69.64;101012.47;10290251;28;96668;-81
2022/03/16 18:21:15;;;;;;;10.17;6.97;;;8.00;99.90;;;6.43;69.84;101021.63;10300701;28;96627;-79
2022/03/16 18:26:19;;;;;;;11.37;6.67;;;7.90;99.90;;;6.32;70.41;101014.53;10294765;28;97002;-79
2022/03/16 18:31:22;;;;;;;10.23;6.57;;;7.90;99.90;;;6.22;69.95;101015.38;10321859;28;96569;-80
2022/03/16 18:36:26;;;;;;;11.03;7.00;;;7.70;99.90;;;6.21;69.72;101021.63;10293267;28;96386;-81
2022/03/16 18:41:30;;;;;;;10.20;6.50;;;7.70;99.90;;;6.26;69.33;101022.09;10307733;28;96511;-81
2022/03/16 18:46:33;;;;;;;13.27;6.63;;;7.70;99.90;;;6.29;69.47;101032.41;10328789;28;98158;-80
2022/03/16 18:56:58;;;;;;;11.23;5.20;;;7.70;99.90;;;6.22;69.20;101047.03;10303022;28;96605;-80
2022/03/16 19:02:03;;;;;;;14.80;8.93;;;7.70;99.80;;;6.06;69.34;101045.59;10291680;28;96426;-79
2022/03/16 19:07:06;;;;;;;14.10;6.60;;;7.60;99.90;;;5.90;69.80;101061.72;10320696;28;96591;-82
2022/03/16 19:17:33;;;;;;;;;;;7.30;99.90;;;5.59;70.97;101050.00;10269782;28;96869;-80
2022/03/16 19:22:36;;;;;;;11.60;5.80;;;7.20;99.90;;;5.45;71.37;101057.25;10251395;28;97858;-80
2022/03/16 19:27:40;;;;;;;13.67;7.30;;;7.10;99.90;;;5.33;71.62;101069.53;10260310;28;96582;-80
2022/03/16 19:32:43;;;;;;;14.30;6.87;;;7.00;99.90;;;5.23;72.25;101073.84;10245110;28;97305;-79
2022/03/16 19:37:46;;;;;;;13.77;7.50;;;6.90;99.90;;;5.15;72.66;101084.06;10237079;28;97166;-79
2022/03/16 19:42:49;;;;;;;12.03;6.83;;;6.80;99.90;;;5.04;72.82;101087.50;10273180;28;96640;-80
2022/03/16 19:47:52;;;;;;;12.17;6.93;;;6.70;99.90;;;4.90;73.42;101096.38;10246542;28;98291;-80
2022/03/16 19:52:55;;;;;;;17.37;8.90;;;6.60;99.90;;;4.74;73.52;101103.69;10238707;28;96518;-80
2022/03/16 19:57:58;;;;;;;15.73;6.87;;;6.50;99.90;;;4.61;74.44;101101.06;10234947;28;96569;-80
2022/03/16 20:03:01;;;;;;;10.93;6.27;;;6.40;99.90;;;4.51;74.68;101100.88;10273505;28;96751;-80
2022/03/16 20:08:05;;;;;;;14.37;7.23;;;6.30;99.90;;;4.40;75.19;101102.56;10249612;28;96522;-79
2022/03/16 20:13:10;;;;;;;16.10;9.10;;;6.10;99.90;;;4.23;75.39;101098.47;10270265;28;96554;-78
2022/03/16 20:18:13;;;;;;;18.17;9.50;;;6.00;99.90;;;4.05;75.35;101099.72;10232978;28;97116;-79
2022/03/16 20:23:16;;;;;;;18.60;9.63;;;5.90;99.90;;;3.86;75.85;101105.38;10246528;28;96886;-79
2022/03/16 20:28:21;;;;;;;15.17;8.37;;;5.70;99.90;;;3.66;76.43;101104.91;10242701;28;96747;-79
2022/03/16 20:33:25;;;;;;;18.00;9.57;;;5.50;99.90;;;3.44;76.51;101120.41;10252296;28;96754;-79
2022/03/16 20:38:29;;;;;;;19.90;10.07;;;5.30;99.90;;;3.27;77.27;101121.50;10246489;28;96543;-79
2022/03/16 20:43:32;;;;;;;13.83;8.33;;;5.20;99.90;;;3.18;78.10;101124.72;10258087;28;97114;-79
2022/03/16 20:48:34;;;;;;;16.20;9.20;;;5.00;99.90;;;3.08;78.42;101134.09;10270803;28;96589;-79
2022/03/16 20:53:38;;;;;;;12.00;6.40;;;4.90;99.90;;;2.97;78.35;101126.06;10256779;28;96821;-79
2022/03/16 21:04:05;;;;;;;;;;;4.70;99.90;;;2.66;78.99;101144.56;10248295;28;96523;-79
2022/03/16 21:09:09;;;;;;;19.83;9.93;;;4.60;99.90;;;2.54;79.46;101153.19;10247137;28;96504;-79
2022/03/16 21:14:13;;;;;;;15.33;8.50;;;4.40;99.90;;;2.47;80.19;101149.25;10269520;28;96960;-79
2022/03/16 21:19:17;;;;;;;10.53;6.23;;;4.30;99.90;;;2.44;80.68;101153.81;10247544;28;96719;-79
2022/03/16 21:24:20;;;;;;;14.10;8.40;;;4.30;99.90;;;2.38;80.63;101166.38;10261929;28;96743;-79
2022/03/16 21:29:23;;;;;;;18.53;8.83;;;4.30;99.90;;;2.32;80.42;101166.72;10236523;28;96562;-79
2022/03/16 21:34:26;;;;;;;8.87;5.77;;;4.20;99.90;;;2.22;80.73;101164.75;10257653;28;96510;-81
2022/03/16 21:39:29;;;;;;;19.60;9.50;;;4.10;99.90;;;2.08;80.66;101174.28;10265250;28;96422;-81
2022/03/16 21:44:39;;;;;;;13.70;7.83;;;4.00;99.90;;;1.94;80.93;101170.78;10258657;28;96428;-81
2022/03/16 21:49:43;;;;;;;15.43;8.40;;;3.90;99.90;;;1.86;80.86;101179.09;10272697;28;97016;-78
2022/03/16 21:54:46;;;;;;;9.97;6.47;;;3.80;99.90;;;1.91;82.05;101178.81;10242327;28;96799;-80
2022/03/16 21:59:49;;;;;;;12.63;7.20;;;3.70;99.90;;;1.91;81.83;101174.41;10258515;28;98260;-79
2022/03/16 22:04:52;;;;;;;17.27;9.30;;;3.70;99.90;;;1.81;81.37;101184.59;10273920;28;96713;-79